Time;durP1;ratioP1;P1;durP2;ratioP2;P2;SDS_P1;SDS_P2;PMS_P1;PMS_P2;Temp;Humidity;BMP_temperature;BMP_pressure;BME280_temperature;BME280_humidity;BME280_pressure;Samples;Min_cycle;Max_cycle;Signal;HPM_P1;HPM_P2
2023/10/04 00:01:00;;;;;;;4.10;2.40;;;10.00;99.90;;;;;;480657;247;28021;-70
2023/10/04 00:03:01;;;;;;;4.00;2.60;;;10.00;99.90;;;;;;480700;247;28132;-71
2023/10/04 00:05:02;;;;;;;2.80;2.50;;;10.00;99.90;;;;;;480630;247;27689;-71
2023/10/04 00:07:04;;;;;;;3.87;2.63;;;9.90;99.90;;;;;;480690;247;28060;-70
2023/10/04 00:09:05;;;;;;;2.70;2.37;;;10.00;99.90;;;;;;480629;246;27896;-71
2023/10/04 00:11:06;;;;;;;18.93;3.63;;;10.10;99.90;;;;;;480709;247;28001;-70
2023/10/04 00:13:07;;;;;;;5.43;2.43;;;10.10;99.90;;;;;;480658;247;27877;-70
2023/10/04 00:15:15;;;;;;;3.43;2.40;;;10.10;99.90;;;;;;480670;247;27890;-71
2023/10/04 00:17:13;;;;;;;3.60;2.23;;;10.10;99.90;;;;;;480657;246;27816;-71
2023/10/04 00:19:14;;;;;;;5.10;2.30;;;10.00;99.90;;;;;;480618;247;27899;-71
2023/10/04 00:21:15;;;;;;;3.87;2.60;;;10.00;99.90;;;;;;480558;247;27777;-71
2023/10/04 00:23:17;;;;;;;4.30;2.37;;;10.00;99.90;;;;;;480617;245;28343;-71
2023/10/04 00:25:21;;;;;;;4.90;2.70;;;10.00;99.90;;;;;;480671;247;27675;-71
2023/10/04 00:27:20;;;;;;;3.63;2.50;;;9.90;99.90;;;;;;480624;246;27820;-71
2023/10/04 00:29:20;;;;;;;6.03;2.90;;;9.90;99.90;;;;;;480688;247;27744;-71
2023/10/04 00:31:21;;;;;;;4.37;2.43;;;9.90;99.90;;;;;;480661;247;27964;-71
2023/10/04 00:33:23;;;;;;;5.57;2.43;;;9.90;99.90;;;;;;480619;247;28380;-71
2023/10/04 00:35:25;;;;;;;3.63;2.13;;;9.90;99.90;;;;;;480608;247;28236;-71
2023/10/04 00:37:26;;;;;;;5.60;2.83;;;9.90;99.90;;;;;;480647;247;28442;-71
2023/10/04 00:39:27;;;;;;;4.13;2.20;;;9.90;99.90;;;;;;480633;247;28116;-71
2023/10/04 00:41:28;;;;;;;3.17;2.17;;;9.90;99.90;;;;;;480674;247;28502;-71
2023/10/04 00:43:31;;;;;;;4.77;2.77;;;9.80;99.90;;;;;;480665;247;27925;-71
2023/10/04 00:45:32;;;;;;;2.97;2.20;;;9.70;99.90;;;;;;480642;247;27485;-71
2023/10/04 00:47:32;;;;;;;4.37;2.27;;;9.70;99.90;;;;;;480672;247;27878;-71
2023/10/04 00:49:33;;;;;;;2.83;2.33;;;9.70;99.90;;;;;;480542;247;27866;-71
2023/10/04 00:51:36;;;;;;;5.00;3.23;;;9.60;99.90;;;;;;480649;247;28028;-71
2023/10/04 00:53:35;;;;;;;3.97;2.60;;;9.60;99.90;;;;;;480640;247;27798;-72
2023/10/04 00:55:43;;;;;;;3.90;2.53;;;9.70;99.90;;;;;;480704;247;27965;-71
2023/10/04 00:57:43;;;;;;;4.77;2.40;;;9.70;99.90;;;;;;480648;247;28498;-71
2023/10/04 00:59:45;;;;;;;3.63;2.47;;;9.70;99.90;;;;;;480627;247;28470;-71
2023/10/04 01:01:46;;;;;;;3.70;2.57;;;9.70;99.90;;;;;;480630;247;27803;-72
2023/10/04 01:03:47;;;;;;;4.30;2.30;;;9.60;99.90;;;;;;480585;247;28124;-73
2023/10/04 01:05:51;;;;;;;4.63;2.40;;;9.60;99.90;;;;;;480590;247;28037;-71
2023/10/04 01:07:50;;;;;;;2.73;2.10;;;9.60;99.90;;;;;;480648;245;27809;-72
2023/10/04 01:09:51;;;;;;;2.47;2.07;;;9.60;99.90;;;;;;480673;247;27849;-71
2023/10/04 01:11:52;;;;;;;3.03;2.20;;;9.50;99.90;;;;;;480634;247;27977;-71
2023/10/04 01:14:06;;;;;;;4.67;2.40;;;9.50;99.90;;;;;;480618;247;27948;-72
2023/10/04 01:15:59;;;;;;;2.27;2.00;;;9.50;99.90;;;;;;480661;247;27909;-71
2023/10/04 01:17:59;;;;;;;2.47;2.17;;;9.50;99.90;;;;;;480611;247;27859;-71
2023/10/04 01:20:00;;;;;;;4.57;1.97;;;9.40;99.90;;;;;;480649;247;27956;-71
2023/10/04 01:22:02;;;;;;;4.07;2.37;;;9.50;99.90;;;;;;480693;247;27640;-71
2023/10/04 01:24:08;;;;;;;2.43;2.20;;;9.50;99.90;;;;;;480673;247;27929;-71
2023/10/04 01:26:04;;;;;;;4.23;2.40;;;9.40;99.90;;;;;;480626;247;27690;-71
2023/10/04 01:28:17;;;;;;;3.53;2.60;;;9.50;99.90;;;;;;480644;247;27914;-71
2023/10/04 01:30:16;;;;;;;3.10;2.43;;;9.50;99.90;;;;;;480645;247;27514;-71
2023/10/04 01:32:19;;;;;;;2.23;1.80;;;9.40;99.90;;;;;;480679;247;27979;-72
2023/10/04 01:34:18;;;;;;;3.60;2.67;;;9.40;99.90;;;;;;480614;247;28348;-72
2023/10/04 01:36:19;;;;;;;2.60;2.10;;;9.30;99.90;;;;;;480652;247;28218;-72
2023/10/04 01:38:32;;;;;;;2.77;1.90;;;9.20;99.90;;;;;;480609;247;28561;-71
2023/10/04 01:40:34;;;;;;;2.20;2.00;;;9.20;99.90;;;;;;480563;246;27925;-72
2023/10/04 01:42:29;;;;;;;3.47;2.57;;;9.20;99.90;;;;;;480579;247;27812;-72
2023/10/04 01:44:30;;;;;;;2.57;2.33;;;9.20;99.90;;;;;;480614;247;28388;-72
2023/10/04 01:46:31;;;;;;;6.00;3.20;;;9.10;99.90;;;;;;480671;247;28425;-71
2023/10/04 01:48:36;;;;;;;3.20;2.60;;;9.10;99.90;;;;;;480588;246;28493;-71
2023/10/04 01:50:37;;;;;;;2.70;2.27;;;9.00;99.90;;;;;;480611;247;27894;-71
2023/10/04 01:52:38;;;;;;;3.00;2.30;;;9.00;99.90;;;;;;480648;247;28149;-73
2023/10/04 01:54:39;;;;;;;2.60;2.23;;;9.00;99.90;;;;;;480634;247;27901;-71
2023/10/04 01:56:41;;;;;;;2.70;2.37;;;9.00;99.90;;;;;;480609;247;27757;-72
2023/10/04 01:58:42;;;;;;;4.00;2.30;;;9.00;99.90;;;;;;480611;247;27865;-73
2023/10/04 02:00:43;;;;;;;2.90;2.10;;;9.10;99.90;;;;;;480624;247;27980;-71
2023/10/04 02:02:44;;;;;;;3.00;2.10;;;9.10;99.90;;;;;;480613;247;28017;-72
2023/10/04 02:04:52;;;;;;;3.20;2.20;;;9.10;99.90;;;;;;480605;247;27932;-71
2023/10/04 02:06:48;;;;;;;2.77;2.13;;;9.10;99.90;;;;;;480633;247;28311;-71
2023/10/04 02:08:48;;;;;;;4.13;2.10;;;9.00;99.90;;;;;;480649;247;28314;-72
2023/10/04 02:10:50;;;;;;;3.07;2.13;;;8.90;99.90;;;;;;480651;247;28504;-72
2023/10/04 02:12:55;;;;;;;2.13;1.83;;;8.80;99.90;;;;;;480664;245;28530;-72
2023/10/04 02:14:55;;;;;;;3.40;2.33;;;8.80;99.90;;;;;;480632;247;28006;-72
2023/10/04 02:16:58;;;;;;;2.67;2.20;;;8.80;99.90;;;;;;480589;247;28006;-73
2023/10/04 02:18:59;;;;;;;3.00;2.20;;;8.80;99.90;;;;;;480555;247;27862;-71
2023/10/04 02:20:59;;;;;;;4.50;2.33;;;8.80;99.90;;;;;;480597;247;27916;-72
2023/10/04 02:23:00;;;;;;;2.33;1.93;;;8.80;99.90;;;;;;480621;247;27900;-72
2023/10/04 02:25:01;;;;;;;2.20;2.00;;;8.70;99.90;;;;;;480599;247;27939;-72
2023/10/04 02:27:05;;;;;;;1.90;1.70;;;8.70;99.90;;;;;;480615;247;27771;-73
2023/10/04 02:29:09;;;;;;;5.27;2.10;;;8.70;99.90;;;;;;480602;247;27883;-72
2023/10/04 02:31:05;;;;;;;2.63;1.97;;;8.60;99.90;;;;;;480596;247;27899;-72
2023/10/04 02:33:13;;;;;;;3.70;2.10;;;8.60;99.90;;;;;;480629;247;27760;-71
2023/10/04 02:35:10;;;;;;;2.20;1.80;;;8.60;99.90;;;;;;480618;247;27584;-71
2023/10/04 02:37:12;;;;;;;2.23;2.00;;;8.60;99.90;;;;;;480624;247;27933;-73
2023/10/04 02:39:13;;;;;;;3.60;2.00;;;8.60;99.90;;;;;;480660;247;28375;-71
2023/10/04 02:41:15;;;;;;;2.10;1.70;;;8.60;99.90;;;;;;480666;247;28520;-72
2023/10/04 02:43:15;;;;;;;2.10;1.90;;;8.70;99.90;;;;;;480659;247;28508;-71
2023/10/04 02:45:19;;;;;;;3.03;1.90;;;8.70;99.90;;;;;;480682;247;30258;-71
2023/10/04 02:47:20;;;;;;;2.80;1.80;;;8.60;99.90;;;;;;480696;246;27869;-71
2023/10/04 02:49:23;;;;;;;2.80;2.10;;;8.60;99.90;;;;;;480607;247;27635;-72
2023/10/04 02:51:24;;;;;;;3.60;2.03;;;8.60;99.90;;;;;;480629;247;27865;-71
2023/10/04 02:53:25;;;;;;;2.53;2.23;;;8.60;99.90;;;;;;480635;247;28000;-71
2023/10/04 02:55:25;;;;;;;2.33;1.90;;;8.50;99.90;;;;;;480632;247;27913;-71
2023/10/04 02:57:30;;;;;;;2.80;1.97;;;8.50;99.90;;;;;;480637;247;27870;-71
2023/10/04 02:59:28;;;;;;;1.97;1.77;;;8.40;99.90;;;;;;480607;247;27826;-71
2023/10/04 03:01:30;;;;;;;3.20;2.00;;;8.30;99.90;;;;;;480541;247;28458;-73
2023/10/04 03:03:31;;;;;;;2.77;1.93;;;8.30;99.90;;;;;;480595;247;28353;-71
2023/10/04 03:05:34;;;;;;;2.60;1.77;;;8.30;99.90;;;;;;480345;247;28820;-71
2023/10/04 03:07:33;;;;;;;2.07;1.87;;;8.30;99.90;;;;;;480466;247;28454;-71
2023/10/04 03:09:34;;;;;;;2.20;1.83;;;8.30;99.90;;;;;;480710;247;28206;-71
2023/10/04 03:11:37;;;;;;;3.10;2.10;;;8.20;99.90;;;;;;480603;247;27794;-72
2023/10/04 03:13:38;;;;;;;2.63;1.93;;;8.20;99.90;;;;;;480622;247;27410;-71
2023/10/04 03:15:38;;;;;;;2.60;1.77;;;8.30;99.90;;;;;;480698;247;27993;-72
2023/10/04 03:17:39;;;;;;;2.87;2.00;;;8.20;99.90;;;;;;480665;247;27823;-73
2023/10/04 03:19:41;;;;;;;2.40;2.00;;;8.20;99.90;;;;;;480684;247;27855;-72
2023/10/04 03:21:45;;;;;;;3.67;2.17;;;8.20;99.90;;;;;;480607;247;28028;-72
2023/10/04 03:23:43;;;;;;;2.80;2.20;;;8.20;99.90;;;;;;480591;247;28071;-71
2023/10/04 03:25:44;;;;;;;3.50;2.30;;;8.20;99.90;;;;;;480664;247;27943;-71
2023/10/04 03:27:46;;;;;;;3.03;2.20;;;8.30;99.90;;;;;;480643;245;27889;-72
2023/10/04 03:29:47;;;;;;;2.83;2.40;;;8.20;99.90;;;;;;480619;247;27938;-71
2023/10/04 03:31:49;;;;;;;3.23;2.13;;;8.20;99.90;;;;;;480686;247;28008;-71
2023/10/04 03:33:50;;;;;;;1.80;1.70;;;8.20;99.90;;;;;;480670;247;27790;-71
2023/10/04 03:35:53;;;;;;;2.60;1.70;;;8.20;99.90;;;;;;480645;247;27844;-71
2023/10/04 03:37:58;;;;;;;2.23;1.87;;;8.10;99.90;;;;;;480659;245;27901;-72
2023/10/04 03:39:56;;;;;;;3.07;1.90;;;8.10;99.90;;;;;;480542;247;27876;-72
2023/10/04 03:41:57;;;;;;;2.50;2.10;;;8.10;99.90;;;;;;480615;247;27971;-71
2023/10/04 03:43:58;;;;;;;2.20;1.83;;;8.00;99.90;;;;;;480595;245;27980;-72
2023/10/04 03:46:07;;;;;;;4.90;2.10;;;7.90;99.90;;;;;;480613;247;29399;-72
2023/10/04 03:48:00;;;;;;;2.17;1.83;;;7.90;99.90;;;;;;480542;247;28415;-71
2023/10/04 03:50:06;;;;;;;1.70;1.57;;;7.90;99.90;;;;;;480619;247;28349;-72
2023/10/04 03:52:04;;;;;;;2.20;2.00;;;7.80;99.90;;;;;;480646;247;28425;-71
2023/10/04 03:54:07;;;;;;;1.97;1.73;;;7.80;99.90;;;;;;480648;247;28475;-71
2023/10/04 03:56:05;;;;;;;4.27;2.33;;;7.80;99.90;;;;;;480600;247;28361;-71
2023/10/04 03:58:15;;;;;;;2.20;2.00;;;7.80;99.90;;;;;;480591;246;28049;-71
2023/10/04 04:00:17;;;;;;;3.40;2.40;;;7.80;99.90;;;;;;480585;247;27990;-73
2023/10/04 04:02:19;;;;;;;2.57;2.07;;;7.70;99.90;;;;;;480617;245;28518;-73
2023/10/04 04:04:19;;;;;;;5.93;2.60;;;7.60;99.90;;;;;;480573;247;28434;-71
2023/10/04 04:06:20;;;;;;;3.13;2.47;;;7.70;99.90;;;;;;480576;247;28309;-71
2023/10/04 04:08:22;;;;;;;5.33;2.27;;;7.70;99.90;;;;;;480563;247;29770;-72
2023/10/04 04:10:24;;;;;;;2.50;2.30;;;7.70;99.90;;;;;;480640;247;28013;-71
2023/10/04 04:12:25;;;;;;;2.57;2.27;;;7.70;99.90;;;;;;480628;247;27836;-71
2023/10/04 04:14:25;;;;;;;2.07;1.90;;;7.70;99.90;;;;;;480650;247;27979;-71
2023/10/04 04:16:27;;;;;;;2.77;2.10;;;7.70;99.90;;;;;;480601;247;28035;-72
2023/10/04 04:18:29;;;;;;;2.60;2.20;;;7.70;99.90;;;;;;480606;247;27884;-71
2023/10/04 04:20:31;;;;;;;3.03;2.10;;;7.70;99.90;;;;;;480525;247;27935;-72
2023/10/04 04:22:30;;;;;;;2.50;1.97;;;7.70;99.90;;;;;;480585;247;27706;-71
2023/10/04 04:24:32;;;;;;;2.80;2.50;;;7.80;99.90;;;;;;480607;247;27754;-71
2023/10/04 04:26:34;;;;;;;2.47;2.27;;;7.80;99.90;;;;;;480609;247;27811;-71
2023/10/04 04:28:37;;;;;;;2.20;1.97;;;7.80;99.90;;;;;;480576;247;28038;-72
2023/10/04 04:30:38;;;;;;;1.90;1.80;;;7.80;99.90;;;;;;480515;247;28438;-73
2023/10/04 04:32:41;;;;;;;3.37;2.20;;;7.70;99.90;;;;;;480596;247;28253;-71
2023/10/04 04:34:42;;;;;;;5.00;2.27;;;7.70;99.90;;;;;;480629;247;28462;-72
2023/10/04 04:36:42;;;;;;;2.20;2.00;;;7.70;99.90;;;;;;480647;247;28101;-71
2023/10/04 04:38:44;;;;;;;2.50;1.97;;;7.80;99.90;;;;;;480644;247;28515;-71
2023/10/04 04:40:46;;;;;;;2.30;2.00;;;7.80;99.90;;;;;;480574;247;28509;-72
2023/10/04 04:42:47;;;;;;;2.63;2.20;;;7.80;99.90;;;;;;480583;247;28005;-71
2023/10/04 04:44:47;;;;;;;1.77;1.67;;;7.80;99.90;;;;;;480639;245;27921;-71
2023/10/04 04:46:48;;;;;;;2.97;2.33;;;7.80;99.90;;;;;;480621;247;27764;-71
2023/10/04 04:48:51;;;;;;;1.90;1.80;;;7.80;99.90;;;;;;480666;247;27906;-72
2023/10/04 04:50:52;;;;;;;2.40;2.20;;;7.90;99.90;;;;;;480656;247;27989;-73
2023/10/04 04:52:52;;;;;;;3.20;2.60;;;7.90;99.90;;;;;;480613;247;27883;-71
2023/10/04 04:54:55;;;;;;;4.03;2.47;;;7.80;99.90;;;;;;480612;247;27949;-71
2023/10/04 04:56:54;;;;;;;4.60;2.90;;;7.90;99.90;;;;;;480605;247;28062;-72
2023/10/04 04:59:07;;;;;;;3.90;2.53;;;7.90;99.90;;;;;;480614;247;27898;-72
2023/10/04 05:01:07;;;;;;;2.53;2.30;;;7.90;99.90;;;;;;480557;247;28403;-72
2023/10/04 05:03:04;;;;;;;3.30;2.70;;;8.00;99.90;;;;;;480575;247;27927;-71
2023/10/04 05:05:11;;;;;;;5.60;3.67;;;8.00;99.90;;;;;;480619;247;28368;-71
2023/10/04 05:07:09;;;;;;;4.00;2.60;;;7.90;99.90;;;;;;480568;247;28420;-72
2023/10/04 05:09:10;;;;;;;2.70;2.50;;;8.00;99.90;;;;;;480590;247;28012;-72
2023/10/04 05:11:09;;;;;;;3.57;2.27;;;8.00;99.90;;;;;;480599;247;29112;-72
2023/10/04 05:13:13;;;;;;;3.83;2.67;;;8.00;99.90;;;;;;480606;247;28736;-71
2023/10/04 05:15:22;;;;;;;7.40;2.87;;;8.00;99.90;;;;;;480570;247;27683;-72
2023/10/04 05:17:12;;;;;;;3.57;2.90;;;8.10;99.90;;;;;;480621;247;27756;-71
2023/10/04 05:19:13;;;;;;;3.50;2.20;;;8.10;99.90;;;;;;480597;247;27878;-71
2023/10/04 05:21:15;;;;;;;3.10;2.60;;;8.10;99.90;;;;;;480697;247;27686;-73
2023/10/04 05:23:16;;;;;;;3.53;2.83;;;8.10;99.90;;;;;;480628;247;27932;-72
2023/10/04 05:25:18;;;;;;;3.37;2.50;;;8.10;99.90;;;;;;480623;247;27914;-72
2023/10/04 05:27:18;;;;;;;3.77;2.90;;;8.00;99.90;;;;;;480595;247;27929;-71
2023/10/04 05:29:20;;;;;;;2.83;2.53;;;8.00;99.90;;;;;;480602;247;27908;-72
2023/10/04 05:31:21;;;;;;;4.03;2.30;;;8.00;99.90;;;;;;480610;247;27946;-71
2023/10/04 05:33:22;;;;;;;6.60;3.17;;;8.10;99.90;;;;;;480558;247;27409;-71
2023/10/04 05:35:23;;;;;;;6.53;2.97;;;8.00;99.90;;;;;;480571;247;28007;-71
2023/10/04 05:37:25;;;;;;;4.27;2.67;;;8.00;99.90;;;;;;480514;247;28059;-71
2023/10/04 05:39:26;;;;;;;3.10;2.60;;;8.00;99.90;;;;;;480582;247;28002;-71
2023/10/04 05:41:31;;;;;;;4.60;3.37;;;8.00;99.90;;;;;;480669;247;27913;-71
2023/10/04 05:43:34;;;;;;;2.67;2.47;;;8.00;99.90;;;;;;480599;247;27418;-72
2023/10/04 05:45:33;;;;;;;4.13;2.60;;;8.00;99.90;;;;;;480588;247;27972;-71
2023/10/04 05:47:34;;;;;;;7.00;3.00;;;8.00;99.90;;;;;;480645;247;27792;-71
2023/10/04 05:49:35;;;;;;;4.70;2.70;;;8.00;99.90;;;;;;480658;247;28013;-73
2023/10/04 05:51:36;;;;;;;4.83;3.07;;;8.00;99.90;;;;;;480653;247;27773;-71
2023/10/04 05:53:38;;;;;;;6.27;3.50;;;8.00;99.90;;;;;;480570;247;27819;-71
2023/10/04 05:55:39;;;;;;;3.53;2.50;;;8.00;99.90;;;;;;480628;246;27527;-71
2023/10/04 05:57:40;;;;;;;5.90;3.43;;;7.90;99.90;;;;;;480613;247;28079;-71
2023/10/04 05:59:42;;;;;;;4.30;2.70;;;7.90;99.90;;;;;;480656;247;27890;-71
2023/10/04 06:01:43;;;;;;;4.83;2.80;;;8.00;99.90;;;;;;480601;247;27767;-71
2023/10/04 06:03:44;;;;;;;4.70;2.73;;;8.00;99.90;;;;;;480684;247;27564;-71
2023/10/04 06:05:45;;;;;;;4.30;2.60;;;8.10;99.90;;;;;;480670;247;28105;-71
2023/10/04 06:07:50;;;;;;;8.27;3.20;;;8.20;99.90;;;;;;480653;247;27410;-71
2023/10/04 06:09:48;;;;;;;2.47;2.27;;;8.10;99.90;;;;;;480665;246;28346;-71
2023/10/04 06:11:49;;;;;;;5.60;2.83;;;8.10;99.90;;;;;;480659;247;28418;-71
2023/10/04 06:13:50;;;;;;;7.10;3.50;;;8.10;99.90;;;;;;480631;247;28740;-71
2023/10/04 06:15:53;;;;;;;5.70;3.27;;;8.10;99.90;;;;;;480600;247;28504;-70
2023/10/04 06:17:53;;;;;;;7.60;3.67;;;8.10;99.90;;;;;;480644;247;28162;-71
2023/10/04 06:19:54;;;;;;;4.77;2.77;;;8.20;99.90;;;;;;480652;247;27776;-72
2023/10/04 06:21:55;;;;;;;5.33;2.70;;;8.30;99.90;;;;;;480668;247;27409;-71
2023/10/04 06:23:57;;;;;;;5.40;3.10;;;8.30;99.90;;;;;;480639;247;27771;-73
2023/10/04 06:25:58;;;;;;;5.20;3.20;;;8.40;99.90;;;;;;480631;247;27768;-72
2023/10/04 06:27:59;;;;;;;4.97;3.27;;;8.50;99.90;;;;;;480627;247;27994;-71
2023/10/04 06:30:00;;;;;;;4.67;3.10;;;8.50;99.90;;;;;;480600;247;28047;-72
2023/10/04 06:32:03;;;;;;;4.00;2.97;;;8.50;99.90;;;;;;480622;247;27855;-70
2023/10/04 06:34:03;;;;;;;6.10;2.73;;;8.50;99.90;;;;;;480593;247;27929;-71
2023/10/04 06:36:04;;;;;;;3.90;2.70;;;8.60;99.90;;;;;;480681;247;27572;-72
2023/10/04 06:38:06;;;;;;;7.00;3.23;;;8.70;99.90;;;;;;480662;246;27886;-70
2023/10/04 06:40:15;;;;;;;3.23;2.90;;;8.70;99.90;;;;;;480633;247;27816;-71
2023/10/04 06:42:08;;;;;;;5.33;3.20;;;8.80;99.90;;;;;;480512;247;27768;-71
2023/10/04 06:44:10;;;;;;;4.90;3.10;;;8.80;99.90;;;;;;480648;247;27881;-71
2023/10/04 06:46:10;;;;;;;4.50;3.37;;;8.80;99.90;;;;;;480576;247;27903;-72
2023/10/04 06:48:11;;;;;;;5.37;3.50;;;8.80;99.90;;;;;;480614;247;27914;-76
2023/10/04 06:50:16;;;;;;;6.00;3.03;;;8.80;99.90;;;;;;480617;247;28343;-71
2023/10/04 06:52:17;;;;;;;4.07;2.40;;;8.80;99.90;;;;;;480633;247;27800;-71
2023/10/04 06:54:18;;;;;;;3.60;2.20;;;8.90;99.90;;;;;;480638;247;27893;-71
2023/10/04 06:56:19;;;;;;;3.30;2.83;;;8.90;99.90;;;;;;480634;247;27925;-71
2023/10/04 06:58:21;;;;;;;4.70;2.87;;;9.00;99.90;;;;;;480626;247;28023;-71
2023/10/04 07:00:22;;;;;;;6.17;3.20;;;9.00;99.90;;;;;;480668;247;27874;-71
2023/10/04 07:02:23;;;;;;;4.07;2.60;;;9.00;99.90;;;;;;480626;247;27708;-71
2023/10/04 07:04:24;;;;;;;6.63;3.80;;;9.10;99.90;;;;;;480573;247;27953;-72
2023/10/04 07:06:25;;;;;;;5.73;3.47;;;9.10;99.90;;;;;;480641;247;27903;-71
2023/10/04 07:08:32;;;;;;;6.97;3.03;;;9.20;99.90;;;;;;479883;245;27999;-71
2023/10/04 07:10:28;;;;;;;4.47;2.87;;;9.20;99.90;;;;;;479894;247;28016;-71
2023/10/04 07:12:31;;;;;;;6.47;3.47;;;9.20;99.90;;;;;;480113;247;28873;-71
2023/10/04 07:14:30;;;;;;;4.33;3.27;;;9.20;99.90;;;;;;480178;247;28158;-72
2023/10/04 07:16:32;;;;;;;4.53;2.60;;;9.30;99.90;;;;;;480585;247;27961;-71
2023/10/04 07:18:33;;;;;;;4.63;2.70;;;9.40;99.90;;;;;;480673;247;28541;-71
2023/10/04 07:20:34;;;;;;;3.43;2.70;;;9.40;99.90;;;;;;480696;247;30101;-71
2023/10/04 07:22:36;;;;;;;3.60;2.40;;;9.40;99.90;;;;;;480698;247;27866;-73
2023/10/04 07:24:37;;;;;;;3.43;2.20;;;9.50;99.90;;;;;;480644;247;28014;-71
2023/10/04 07:26:38;;;;;;;8.97;3.30;;;9.60;99.90;;;;;;480639;247;27524;-71
2023/10/04 07:28:40;;;;;;;7.37;2.93;;;9.70;99.90;;;;;;480620;247;27759;-71
2023/10/04 07:30:40;;;;;;;6.00;2.90;;;9.80;99.90;;;;;;480622;247;27559;-71
2023/10/04 07:32:45;;;;;;;4.83;3.37;;;10.00;99.90;;;;;;480689;247;27844;-71
2023/10/04 07:34:46;;;;;;;5.67;3.00;;;10.10;99.90;;;;;;480660;247;28403;-71
2023/10/04 07:36:47;;;;;;;4.53;2.97;;;10.20;99.90;;;;;;480665;247;27923;-71
2023/10/04 07:38:48;;;;;;;5.83;3.10;;;10.30;99.90;;;;;;480656;247;27769;-71
2023/10/04 07:40:49;;;;;;;4.30;3.20;;;10.50;99.90;;;;;;480667;247;27922;-71
2023/10/04 07:42:54;;;;;;;5.93;3.10;;;10.60;99.90;;;;;;480668;247;28155;-72
2023/10/04 07:44:55;;;;;;;4.37;2.87;;;10.60;99.90;;;;;;480671;245;28569;-73
2023/10/04 07:46:56;;;;;;;3.40;2.83;;;10.70;99.90;;;;;;480665;247;28587;-71
2023/10/04 07:48:57;;;;;;;3.60;2.60;;;10.70;99.90;;;;;;480661;247;28829;-73
2023/10/04 07:50:58;;;;;;;4.67;3.17;;;10.80;99.90;;;;;;480673;247;28603;-72
2023/10/04 07:53:00;;;;;;;5.63;3.40;;;10.80;99.90;;;;;;480664;247;28217;-71
2023/10/04 07:55:01;;;;;;;5.47;3.57;;;10.80;99.90;;;;;;480645;247;28204;-72
2023/10/04 07:57:03;;;;;;;4.57;2.80;;;10.90;99.90;;;;;;480659;247;27998;-71
2023/10/04 07:59:06;;;;;;;9.87;3.47;;;11.00;99.90;;;;;;480637;247;28081;-72
2023/10/04 08:01:05;;;;;;;8.03;3.10;;;11.10;99.90;;;;;;480611;247;28231;-71
2023/10/04 08:03:06;;;;;;;5.90;3.27;;;11.10;99.90;;;;;;480653;245;28228;-72
2023/10/04 08:05:07;;;;;;;4.30;3.23;;;11.10;99.90;;;;;;480641;247;28244;-72
2023/10/04 08:07:12;;;;;;;8.30;3.70;;;11.20;99.90;;;;;;480619;247;28317;-72
2023/10/04 08:09:10;;;;;;;3.80;3.10;;;11.20;99.90;;;;;;480626;247;28372;-72
2023/10/04 08:11:11;;;;;;;4.20;2.90;;;11.30;99.90;;;;;;480573;247;28610;-71
2023/10/04 08:13:13;;;;;;;3.10;2.50;;;11.30;99.90;;;;;;480626;245;28602;-71
2023/10/04 08:15:13;;;;;;;4.43;2.67;;;11.30;99.90;;;;;;480634;247;28661;-72
2023/10/04 08:17:16;;;;;;;3.80;3.00;;;11.30;99.90;;;;;;480689;247;28331;-71
2023/10/04 08:19:16;;;;;;;3.97;2.60;;;11.20;99.90;;;;;;480562;247;28444;-71
2023/10/04 08:21:17;;;;;;;4.73;2.70;;;11.10;99.90;;;;;;480648;247;28379;-73
2023/10/04 08:23:20;;;;;;;5.77;2.90;;;11.00;99.90;;;;;;480637;247;28318;-72
2023/10/04 08:25:20;;;;;;;6.50;2.83;;;11.00;99.90;;;;;;480607;247;28449;-72
2023/10/04 08:27:21;;;;;;;4.10;2.90;;;11.10;99.90;;;;;;480660;247;28269;-71
2023/10/04 08:29:23;;;;;;;5.90;3.53;;;11.10;99.90;;;;;;480619;247;28327;-71
2023/10/04 08:31:23;;;;;;;6.27;3.10;;;11.10;99.90;;;;;;480617;247;28234;-72
2023/10/04 08:33:31;;;;;;;11.33;3.63;;;11.10;99.90;;;;;;480619;247;28511;-71
2023/10/04 08:35:28;;;;;;;5.20;3.30;;;11.20;99.90;;;;;;480562;247;28791;-71
2023/10/04 08:37:27;;;;;;;4.33;3.57;;;11.20;99.90;;;;;;480579;247;28926;-71
2023/10/04 08:39:29;;;;;;;7.20;3.43;;;11.20;99.90;;;;;;480562;247;28553;-71
2023/10/04 08:41:30;;;;;;;6.77;3.40;;;11.20;99.90;;;;;;480597;247;28255;-72
2023/10/04 08:43:32;;;;;;;4.00;2.90;;;;;;;;;;480615;247;28163;-72
2023/10/04 08:45:36;;;;;;;10.33;3.80;;;11.20;99.90;;;;;;480616;246;27238;-72
2023/10/04 08:47:38;;;;;;;5.17;3.00;;;11.30;99.90;;;;;;480566;247;28693;-72
2023/10/04 08:49:39;;;;;;;7.60;4.30;;;11.30;99.90;;;;;;480605;247;28337;-71
2023/10/04 08:51:40;;;;;;;6.80;3.10;;;11.40;99.90;;;;;;480659;247;28291;-72
2023/10/04 08:53:41;;;;;;;8.77;4.97;;;11.40;99.90;;;;;;480691;247;28856;-72
2023/10/04 08:55:43;;;;;;;19.07;4.47;;;11.50;99.90;;;;;;480657;247;28625;-72
2023/10/04 08:57:44;;;;;;;7.07;3.30;;;11.50;99.90;;;;;;480651;247;28660;-72
2023/10/04 08:59:45;;;;;;;6.53;3.53;;;11.50;99.90;;;;;;480649;247;28069;-71
2023/10/04 09:01:46;;;;;;;6.50;3.37;;;11.60;99.90;;;;;;480674;247;28122;-72
2023/10/04 09:03:48;;;;;;;4.20;3.80;;;11.60;99.90;;;;;;480680;247;28014;-71
2023/10/04 09:05:51;;;;;;;5.47;3.60;;;11.60;99.90;;;;;;480700;247;28281;-72
2023/10/04 09:07:54;;;;;;;5.73;3.80;;;11.60;99.90;;;;;;480656;247;28246;-72
2023/10/04 09:09:51;;;;;;;9.10;3.70;;;11.80;99.90;;;;;;480672;246;28188;-71
2023/10/04 09:11:53;;;;;;;5.40;3.37;;;11.80;99.90;;;;;;480678;247;28258;-71
2023/10/04 09:13:54;;;;;;;7.17;3.80;;;11.90;99.90;;;;;;480658;247;28328;-73
2023/10/04 09:15:55;;;;;;;7.90;3.70;;;11.90;99.90;;;;;;480646;247;28343;-71
2023/10/04 09:17:57;;;;;;;7.60;3.87;;;12.00;99.90;;;;;;480637;247;29060;-71
2023/10/04 09:19:59;;;;;;;4.83;3.17;;;12.10;99.90;;;;;;480592;247;28688;-71
2023/10/04 09:22:00;;;;;;;8.93;3.50;;;12.20;99.90;;;;;;480629;247;29026;-72
2023/10/04 09:24:00;;;;;;;4.13;3.00;;;12.20;99.90;;;;;;480630;247;28497;-72
2023/10/04 09:26:01;;;;;;;10.13;3.40;;;12.10;99.90;;;;;;480670;247;28624;-72
2023/10/04 09:28:04;;;;;;;12.70;3.40;;;12.10;99.90;;;;;;480670;247;28059;-72
2023/10/04 09:30:04;;;;;;;4.20;2.73;;;12.10;99.90;;;;;;480502;247;28088;-71
2023/10/04 09:32:05;;;;;;;6.53;3.03;;;12.20;99.90;;;;;;480647;247;28771;-71
2023/10/04 09:34:06;;;;;;;10.03;3.60;;;12.20;99.90;;;;;;480674;247;28324;-72
2023/10/04 09:36:10;;;;;;;6.87;3.90;;;12.40;99.90;;;;;;480676;247;28536;-72
2023/10/04 09:38:09;;;;;;;7.87;3.30;;;12.40;99.90;;;;;;480638;247;28777;-72
2023/10/04 09:40:10;;;;;;;8.17;4.40;;;12.40;99.90;;;;;;480616;247;29306;-71
2023/10/04 09:42:13;;;;;;;6.10;5.37;;;12.40;99.90;;;;;;480663;247;28783;-72
2023/10/04 09:44:13;;;;;;;6.40;4.60;;;12.60;99.90;;;;;;480646;247;28538;-73
2023/10/04 09:46:14;;;;;;;7.33;4.27;;;12.80;99.90;;;;;;480638;247;28835;-72
2023/10/04 09:48:15;;;;;;;11.87;3.90;;;12.90;99.90;;;;;;480520;247;28874;-71
2023/10/04 09:50:16;;;;;;;8.97;3.70;;;12.80;99.90;;;;;;480643;246;28796;-73
2023/10/04 09:52:18;;;;;;;10.47;3.50;;;12.70;99.90;;;;;;480657;247;28383;-72
2023/10/04 09:54:19;;;;;;;9.60;3.70;;;12.70;99.90;;;;;;480612;247;28372;-71
2023/10/04 09:56:22;;;;;;;9.63;3.33;;;;;;;;;;480603;247;29067;-71
2023/10/04 09:58:23;;;;;;;7.10;3.37;;;12.90;99.90;;;;;;480645;242;26566;-72
2023/10/04 10:00:24;;;;;;;10.80;4.17;;;13.10;99.90;;;;;;480609;247;28148;-71
2023/10/04 10:02:26;;;;;;;8.03;3.67;;;;;;;;;;480592;247;28168;-72
2023/10/04 10:04:28;;;;;;;12.20;3.90;;;13.30;99.90;;;;;;480629;246;26411;-72
2023/10/04 10:06:29;;;;;;;6.07;3.87;;;13.40;99.90;;;;;;480604;247;28147;-73
2023/10/04 10:08:30;;;;;;;8.33;3.60;;;13.30;99.90;;;;;;480608;247;28220;-72
2023/10/04 10:10:33;;;;;;;6.23;3.27;;;13.30;99.90;;;;;;480667;247;28290;-72
2023/10/04 10:12:33;;;;;;;9.20;4.13;;;13.30;99.90;;;;;;480592;247;28362;-72
2023/10/04 10:14:34;;;;;;;7.27;4.03;;;13.40;99.90;;;;;;480632;247;28537;-71
2023/10/04 10:16:35;;;;;;;7.17;3.23;;;13.60;99.90;;;;;;480610;247;28192;-72
2023/10/04 10:18:36;;;;;;;10.93;2.93;;;13.90;99.90;;;;;;480624;247;28251;-71
2023/10/04 10:20:39;;;;;;;4.03;2.87;;;14.10;99.90;;;;;;480610;247;29083;-71
2023/10/04 10:22:39;;;;;;;5.20;2.33;;;14.10;99.90;;;;;;480605;247;28985;-73
2023/10/04 10:24:42;;;;;;;8.20;2.60;;;14.20;99.90;;;;;;480594;247;29228;-72
2023/10/04 10:26:41;;;;;;;7.50;2.87;;;14.30;99.90;;;;;;480594;247;29328;-72
2023/10/04 10:28:45;;;;;;;6.53;2.67;;;14.40;99.90;;;;;;480632;247;28430;-72
2023/10/04 10:30:44;;;;;;;5.30;2.70;;;14.40;99.90;;;;;;480579;247;28776;-72
2023/10/04 10:32:45;;;;;;;5.30;3.00;;;14.40;99.90;;;;;;480621;247;28796;-73
2023/10/04 10:34:46;;;;;;;4.00;2.50;;;14.40;99.90;;;;;;480630;247;28830;-71
2023/10/04 10:36:48;;;;;;;6.43;2.90;;;14.40;99.90;;;;;;480622;247;28816;-72
2023/10/04 10:38:49;;;;;;;6.27;2.67;;;14.50;99.90;;;;;;480627;247;28808;-72